Time;durP1;ratioP1;P1;durP2;ratioP2;P2;SDS_P1;SDS_P2;PMS_P1;PMS_P2;Temp;Humidity;BMP_temperature;BMP_pressure;BME280_temperature;BME280_humidity;BME280_pressure;Samples;Min_cycle;Max_cycle;Signal;HPM_P1;HPM_P2
2023/07/17 00:01:37;;;;;;;1999.90;999.90;;;17.40;99.90;;;;;;4805948;29;20055;-70
2023/07/17 00:04:03;;;;;;;1999.90;999.90;;;17.30;99.90;;;;;;4806447;29;20135;-69
2023/07/17 00:06:29;;;;;;;1999.90;999.90;;;17.30;99.90;;;;;;4806160;29;20496;-69
2023/07/17 00:08:55;;;;;;;1999.90;999.90;;;17.30;99.90;;;;;;4807221;29;20049;-70
2023/07/17 00:11:21;;;;;;;1999.90;999.90;;;17.30;99.90;;;;;;4821808;29;20436;-70
2023/07/17 00:13:46;;;;;;;1999.90;999.90;;;17.40;99.90;;;;;;4806093;29;20133;-70
2023/07/17 00:16:12;;;;;;;1999.90;999.90;;;17.40;99.90;;;;;;4805598;29;20054;-69
2023/07/17 00:18:38;;;;;;;1999.90;999.90;;;17.30;99.90;;;;;;4791829;29;20051;-70
2023/07/17 00:21:04;;;;;;;1999.90;999.90;;;17.40;99.90;;;;;;4805763;29;20054;-69
2023/07/17 00:23:31;;;;;;;1999.90;999.90;;;17.40;99.90;;;;;;4805247;29;20408;-69
2023/07/17 00:25:57;;;;;;;1999.90;999.90;;;17.40;99.90;;;;;;4805937;29;20429;-70
2023/07/17 00:28:23;;;;;;;1999.90;999.90;;;17.40;99.90;;;;;;4807659;29;20059;-69
2023/07/17 00:30:49;;;;;;;1999.90;999.90;;;17.40;99.90;;;;;;4806808;29;20043;-69
2023/07/17 00:33:15;;;;;;;1999.90;999.90;;;17.40;99.90;;;;;;4806752;29;20051;-69
2023/07/17 00:35:40;;;;;;;1999.90;999.90;;;17.50;99.90;;;;;;4807303;29;20115;-69
2023/07/17 00:38:06;;;;;;;1999.90;999.90;;;17.40;99.90;;;;;;4806697;29;20050;-69
2023/07/17 00:40:32;;;;;;;1999.90;999.90;;;17.50;99.90;;;;;;4806637;29;20138;-69
2023/07/17 00:42:58;;;;;;;1999.90;999.90;;;17.40;99.90;;;;;;4806354;29;20046;-69
2023/07/17 00:45:25;;;;;;;1999.90;999.90;;;17.50;99.90;;;;;;4806676;29;20050;-69
2023/07/17 00:47:51;;;;;;;1999.90;999.90;;;17.50;99.90;;;;;;4806720;29;20051;-69
2023/07/17 00:50:18;;;;;;;1999.90;999.90;;;17.50;99.90;;;;;;4805476;29;20443;-69
2023/07/17 00:52:44;;;;;;;1999.90;999.90;;;17.40;99.90;;;;;;4806067;29;20055;-69
2023/07/17 00:55:12;;;;;;;1999.90;999.90;;;17.40;99.90;;;;;;4805386;29;20058;-69
2023/07/17 00:57:39;;;;;;;1999.90;999.90;;;17.40;99.90;;;;;;4807063;29;20396;-69
2023/07/17 01:00:08;;;;;;;1999.90;999.90;;;17.40;99.90;;;;;;4806342;29;20099;-69
2023/07/17 01:02:36;;;;;;;1999.90;999.90;;;17.40;99.90;;;;;;4805524;29;20129;-69
2023/07/17 01:05:02;;;;;;;1999.90;999.90;;;17.40;99.90;;;;;;4791200;29;20130;-69
2023/07/17 01:07:27;;;;;;;1999.90;999.90;;;17.40;99.90;;;;;;4806963;29;20043;-69
2023/07/17 01:09:53;;;;;;;1999.90;999.90;;;17.40;99.90;;;;;;4821138;29;20062;-69
2023/07/17 01:12:19;;;;;;;1999.90;999.90;;;17.40;99.90;;;;;;4806289;29;20047;-68
2023/07/17 01:14:45;;;;;;;1999.90;999.90;;;17.30;99.90;;;;;;4805676;29;20062;-69
2023/07/17 01:17:10;;;;;;;1999.90;999.90;;;17.30;99.90;;;;;;4806135;29;20058;-69
2023/07/17 01:19:36;;;;;;;1999.90;999.90;;;17.30;99.90;;;;;;4806258;29;20563;-69
2023/07/17 01:22:21;;;;;;;1999.90;999.90;;;17.20;99.90;;;;;;4805763;29;20055;-69
2023/07/17 01:24:47;;;;;;;1999.90;999.90;;;17.20;99.90;;;;;;4806161;29;20062;-69
2023/07/17 01:27:13;;;;;;;1999.90;999.90;;;16.80;99.90;;;;;;4806217;29;20458;-68
2023/07/17 01:29:38;;;;;;;1999.90;999.90;;;17.10;99.90;;;;;;4806220;29;20047;-69
2023/07/17 01:32:04;;;;;;;1999.90;999.90;;;17.10;99.90;;;;;;4806133;29;20069;-70
2023/07/17 01:34:30;;;;;;;1999.90;999.90;;;17.00;99.90;;;;;;4808293;29;20532;-69
2023/07/17 01:36:56;;;;;;;1999.90;999.90;;;17.00;99.90;;;;;;4809697;29;20134;-69
2023/07/17 01:39:24;;;;;;;1999.90;999.90;;;16.90;99.90;;;;;;4809723;29;20050;-69
2023/07/17 01:41:50;;;;;;;1999.90;999.90;;;16.90;99.90;;;;;;4809195;29;20062;-69
2023/07/17 01:44:16;;;;;;;1999.90;999.90;;;16.90;99.90;;;;;;4809239;29;20389;-69
2023/07/17 01:46:42;;;;;;;1999.90;999.90;;;16.90;99.90;;;;;;4808905;29;20119;-68
2023/07/17 01:49:07;;;;;;;1999.90;999.90;;;16.90;99.90;;;;;;4809482;29;20058;-68
2023/07/17 01:51:33;;;;;;;1999.90;999.90;;;16.90;99.90;;;;;;4809673;29;20067;-69
2023/07/17 01:53:59;;;;;;;1999.90;999.90;;;16.90;99.90;;;;;;4809421;29;20059;-69
2023/07/17 01:56:25;;;;;;;1999.90;999.90;;;16.90;99.90;;;;;;4809448;29;20050;-68
2023/07/17 01:58:51;;;;;;;1999.90;999.90;;;16.90;99.90;;;;;;4808481;29;20047;-69
2023/07/17 02:01:16;;;;;;;1999.90;999.90;;;16.90;99.90;;;;;;4809097;29;20503;-69
2023/07/17 02:03:42;;;;;;;1999.90;999.90;;;16.80;99.90;;;;;;4809242;29;20511;-69
2023/07/17 02:06:08;;;;;;;1999.90;999.90;;;16.80;99.90;;;;;;4809254;29;20055;-69
2023/07/17 02:08:34;;;;;;;1999.90;999.90;;;16.80;99.90;;;;;;4808942;29;20486;-69
2023/07/17 02:10:59;;;;;;;1999.90;999.90;;;16.80;99.90;;;;;;4808953;29;20090;-69
2023/07/17 02:13:25;;;;;;;1999.90;999.90;;;16.80;99.90;;;;;;4808942;29;20050;-69
2023/07/17 02:15:51;;;;;;;1999.90;999.90;;;16.70;99.90;;;;;;4808419;29;20047;-69
2023/07/17 02:18:17;;;;;;;1999.90;999.90;;;16.70;99.90;;;;;;4807618;29;20053;-69
2023/07/17 02:20:43;;;;;;;1999.90;999.90;;;16.70;99.90;;;;;;4792798;29;20062;-69
2023/07/17 02:23:08;;;;;;;1999.90;999.90;;;16.70;99.90;;;;;;4807812;29;20151;-69
2023/07/17 02:25:34;;;;;;;1999.90;999.90;;;16.60;99.90;;;;;;4808850;29;20066;-69
2023/07/17 02:28:00;;;;;;;1999.90;999.90;;;16.60;99.90;;;;;;4807860;29;20058;-69
2023/07/17 02:30:26;;;;;;;1999.90;999.90;;;16.60;99.90;;;;;;4822893;29;20055;-69
2023/07/17 02:32:51;;;;;;;1999.90;999.90;;;16.60;99.90;;;;;;4808103;29;20488;-69
2023/07/17 02:35:17;;;;;;;1999.90;999.90;;;16.60;99.90;;;;;;4792736;29;20051;-69
2023/07/17 02:37:43;;;;;;;1999.90;999.90;;;16.60;99.90;;;;;;4807439;29;20047;-69
2023/07/17 02:40:10;;;;;;;1999.90;999.90;;;16.60;99.90;;;;;;4808580;29;20051;-68
2023/07/17 02:42:36;;;;;;;1999.90;999.90;;;16.50;99.90;;;;;;4808782;29;20050;-68
2023/07/17 02:45:03;;;;;;;1999.90;999.90;;;16.50;99.90;;;;;;4807738;29;20059;-69
2023/07/17 02:47:29;;;;;;;1999.90;999.90;;;16.50;99.90;;;;;;4792660;29;20094;-69
2023/07/17 02:49:55;;;;;;;1999.90;999.90;;;16.40;99.90;;;;;;4808444;29;20166;-69
2023/07/17 02:52:20;;;;;;;1999.90;999.90;;;16.40;99.90;;;;;;4808552;29;20059;-69
2023/07/17 02:54:46;;;;;;;1999.90;999.90;;;16.40;99.90;;;;;;4808907;29;20111;-69
2023/07/17 02:57:13;;;;;;;1999.90;999.90;;;16.40;99.90;;;;;;4822871;29;20054;-70
2023/07/17 02:59:39;;;;;;;1999.90;999.90;;;16.40;99.90;;;;;;4808604;29;20461;-69
2023/07/17 03:02:05;;;;;;;1999.90;999.90;;;16.40;99.90;;;;;;4808860;29;20138;-69
2023/07/17 03:04:31;;;;;;;1999.90;999.90;;;16.40;99.90;;;;;;4822199;29;20050;-69
2023/07/17 03:06:57;;;;;;;1999.90;999.90;;;16.30;99.90;;;;;;4808240;29;20097;-69
2023/07/17 03:09:23;;;;;;;1999.90;999.90;;;16.40;99.90;;;;;;4808608;29;20502;-69
2023/07/17 03:11:49;;;;;;;1999.90;999.90;;;16.30;99.90;;;;;;4806887;29;20416;-69
2023/07/17 03:14:15;;;;;;;1999.90;999.90;;;16.30;99.90;;;;;;4808132;29;20047;-69
2023/07/17 03:16:41;;;;;;;1999.90;999.90;;;16.20;99.90;;;;;;4807961;29;20403;-69
2023/07/17 03:19:06;;;;;;;1999.90;999.90;;;16.30;99.90;;;;;;4807082;29;20061;-68
2023/07/17 03:21:32;;;;;;;1999.90;999.90;;;16.30;99.90;;;;;;4806775;29;20062;-69
2023/07/17 03:23:58;;;;;;;1999.90;999.90;;;16.20;99.90;;;;;;4792036;29;20400;-69
2023/07/17 03:26:23;;;;;;;1999.90;999.90;;;16.30;99.90;;;;;;4807834;29;20154;-69
2023/07/17 03:28:49;;;;;;;1999.90;999.90;;;16.20;99.90;;;;;;4807782;29;20047;-69
2023/07/17 03:31:15;;;;;;;1999.90;999.90;;;16.20;99.90;;;;;;4808533;29;20131;-69
2023/07/17 03:33:40;;;;;;;1999.90;999.90;;;16.20;99.90;;;;;;4822715;29;20457;-69
2023/07/17 03:36:07;;;;;;;1999.90;999.90;;;16.20;99.90;;;;;;4807665;29;20146;-69
2023/07/17 03:38:32;;;;;;;1999.90;999.90;;;16.20;99.90;;;;;;4806109;29;20492;-69
2023/07/17 03:40:58;;;;;;;1999.90;999.90;;;16.20;99.90;;;;;;4808030;29;20053;-69
2023/07/17 03:43:24;;;;;;;1999.90;999.90;;;16.20;99.90;;;;;;4791620;29;20050;-69
2023/07/17 03:45:50;;;;;;;1999.90;999.90;;;16.10;99.90;;;;;;4806910;29;20073;-69
2023/07/17 03:48:16;;;;;;;1999.90;999.90;;;16.10;99.90;;;;;;4808259;29;20047;-69
2023/07/17 03:50:42;;;;;;;1999.90;999.90;;;16.10;99.90;;;;;;4792141;29;20059;-69
2023/07/17 03:53:08;;;;;;;1999.90;999.90;;;16.10;99.90;;;;;;4806888;29;20146;-69
2023/07/17 03:55:33;;;;;;;1999.90;999.90;;;16.10;99.90;;;;;;4821556;29;20057;-69
2023/07/17 03:57:59;;;;;;;1999.90;999.90;;;16.10;99.90;;;;;;4805953;29;20051;-69
2023/07/17 04:00:25;;;;;;;1999.90;999.90;;;16.10;99.90;;;;;;4791627;29;20109;-69
2023/07/17 04:02:50;;;;;;;1999.90;999.90;;;16.10;99.90;;;;;;4808005;29;20050;-69
2023/07/17 04:05:16;;;;;;;1999.90;999.90;;;16.10;99.90;;;;;;4791235;29;20506;-69
2023/07/17 04:07:42;;;;;;;1999.90;999.90;;;16.10;99.90;;;;;;4807679;29;20136;-69
2023/07/17 04:10:08;;;;;;;1999.90;999.90;;;16.10;99.90;;;;;;4791121;29;20061;-69
2023/07/17 04:12:34;;;;;;;1999.90;999.90;;;16.10;99.90;;;;;;4807051;29;20054;-69
2023/07/17 04:15:00;;;;;;;1999.90;999.90;;;16.00;99.90;;;;;;4821213;29;20120;-69
2023/07/17 04:17:25;;;;;;;1999.90;999.90;;;16.00;99.90;;;;;;4806494;29;20078;-69
2023/07/17 04:19:51;;;;;;;1999.90;999.90;;;16.00;99.90;;;;;;4805782;29;20051;-69
2023/07/17 04:22:17;;;;;;;1999.90;999.90;;;16.00;99.90;;;;;;4806963;29;20054;-70
2023/07/17 04:24:43;;;;;;;1999.90;999.90;;;16.00;99.90;;;;;;4791041;29;20087;-69
2023/07/17 04:27:08;;;;;;;1999.90;999.90;;;16.00;99.90;;;;;;4806619;29;20432;-69
2023/07/17 04:29:34;;;;;;;1999.90;999.90;;;16.00;99.90;;;;;;4806845;29;20497;-69
2023/07/17 04:32:00;;;;;;;1999.90;999.90;;;16.00;99.90;;;;;;4805850;29;20058;-70
2023/07/17 04:34:25;;;;;;;1999.90;999.90;;;16.00;99.90;;;;;;4821046;29;20057;-70
2023/07/17 04:36:51;;;;;;;1999.90;999.90;;;16.00;99.90;;;;;;4806790;29;20102;-69
2023/07/17 04:39:16;;;;;;;1999.90;999.90;;;16.00;99.90;;;;;;4820761;29;20514;-69
2023/07/17 04:41:42;;;;;;;1999.90;999.90;;;16.10;99.90;;;;;;4806555;29;20073;-70
2023/07/17 04:44:08;;;;;;;1999.90;999.90;;;16.10;99.90;;;;;;4821196;29;20054;-69
2023/07/17 04:46:34;;;;;;;1999.90;999.90;;;16.10;99.90;;;;;;4806367;29;20047;-69
2023/07/17 04:49:00;;;;;;;1999.90;999.90;;;16.10;99.90;;;;;;4791470;29;20058;-70
2023/07/17 04:51:26;;;;;;;1999.90;999.90;;;16.10;99.90;;;;;;4805647;29;20591;-70
2023/07/17 04:53:52;;;;;;;1999.90;999.90;;;16.10;99.90;;;;;;4806824;29;20061;-70
2023/07/17 04:56:17;;;;;;;1999.90;999.90;;;16.20;99.90;;;;;;4806342;29;20055;-69
2023/07/17 04:58:43;;;;;;;1999.90;999.90;;;16.20;99.90;;;;;;4820662;29;20055;-69
2023/07/17 05:01:09;;;;;;;1999.90;999.90;;;16.20;99.90;;;;;;4790867;29;20046;-69
2023/07/17 05:03:36;;;;;;;1999.90;999.90;;;16.20;99.90;;;;;;4806130;29;20055;-69
2023/07/17 05:06:02;;;;;;;1999.90;999.90;;;16.30;99.90;;;;;;4806226;29;20556;-70
2023/07/17 05:08:28;;;;;;;1999.90;999.90;;;16.30;99.90;;;;;;4806766;29;20142;-69
2023/07/17 05:11:02;;;;;;;1999.90;999.90;;;16.30;99.90;;;;;;4809910;29;20058;-69
2023/07/17 05:13:28;;;;;;;1999.90;999.90;;;16.30;99.90;;;;;;4810584;29;20179;-69
2023/07/17 05:15:54;;;;;;;1999.90;999.90;;;16.30;99.90;;;;;;4809331;29;20054;-70
2023/07/17 05:18:20;;;;;;;1999.90;999.90;;;16.30;99.90;;;;;;4808866;29;20051;-69
2023/07/17 05:20:51;;;;;;;1999.90;999.90;;;16.30;99.90;;;;;;4809950;29;20400;-70
2023/07/17 05:23:17;;;;;;;1999.90;999.90;;;16.40;99.90;;;;;;4809917;29;20047;-70
2023/07/17 05:25:52;;;;;;;1999.90;999.90;;;16.40;99.90;;;;;;4809989;29;20110;-69
2023/07/17 05:28:18;;;;;;;1999.90;999.90;;;16.40;99.90;;;;;;4809232;29;20059;-70
2023/07/17 05:30:43;;;;;;;1999.90;999.90;;;16.40;99.90;;;;;;4808854;29;20073;-69
2023/07/17 05:33:09;;;;;;;1999.90;999.90;;;16.40;99.90;;;;;;4810308;29;20504;-70
2023/07/17 05:35:35;;;;;;;1999.90;999.90;;;16.40;99.90;;;;;;4810280;29;20047;-69
2023/07/17 05:38:00;;;;;;;1999.90;999.90;;;16.40;99.90;;;;;;4810223;29;20442;-69
2023/07/17 05:40:26;;;;;;;1999.90;999.90;;;16.50;99.90;;;;;;4809677;29;20043;-69
2023/07/17 05:42:52;;;;;;;1999.90;999.90;;;16.50;99.90;;;;;;4809202;29;20101;-69
2023/07/17 05:45:18;;;;;;;1999.90;999.90;;;16.50;99.90;;;;;;4809548;29;20062;-70
2023/07/17 05:47:43;;;;;;;1999.90;999.90;;;16.60;99.90;;;;;;4808675;29;20055;-70
2023/07/17 05:50:10;;;;;;;1999.90;999.90;;;16.60;99.90;;;;;;4809480;29;20050;-69
2023/07/17 05:52:35;;;;;;;1999.90;999.90;;;16.60;99.90;;;;;;4807792;29;20142;-70
2023/07/17 05:55:02;;;;;;;1999.90;999.90;;;16.60;99.90;;;;;;4808253;29;20130;-70
2023/07/17 05:57:28;;;;;;;1999.90;999.90;;;16.70;99.90;;;;;;4809883;29;20059;-70
2023/07/17 05:59:54;;;;;;;1999.90;999.90;;;16.70;99.90;;;;;;4808888;29;20062;-70
2023/07/17 06:02:20;;;;;;;1999.90;999.90;;;16.80;99.90;;;;;;4808101;29;20144;-70
2023/07/17 06:04:46;;;;;;;1999.90;999.90;;;16.80;99.90;;;;;;4809862;29;20050;-70
2023/07/17 06:07:13;;;;;;;1999.90;999.90;;;16.90;99.90;;;;;;4808556;29;20147;-70
2023/07/17 06:09:39;;;;;;;1999.90;999.90;;;16.90;99.90;;;;;;4808272;29;20062;-70
2023/07/17 06:12:05;;;;;;;1999.90;999.90;;;16.80;99.90;;;;;;4809339;29;20089;-69
2023/07/17 06:14:31;;;;;;;1999.90;999.90;;;16.90;99.90;;;;;;4807616;29;20054;-68
2023/07/17 06:16:57;;;;;;;1999.90;999.90;;;16.90;99.90;;;;;;4809060;29;20051;-69
2023/07/17 06:19:22;;;;;;;1999.90;999.90;;;16.90;99.90;;;;;;4808573;29;20394;-69
2023/07/17 06:21:48;;;;;;;1999.90;999.90;;;17.00;99.90;;;;;;4808298;29;20096;-70
2023/07/17 06:24:14;;;;;;;1999.90;999.90;;;17.00;99.90;;;;;;4823688;29;20396;-69
2023/07/17 06:26:41;;;;;;;1999.90;999.90;;;17.00;99.90;;;;;;4808860;29;20054;-69
2023/07/17 06:29:09;;;;;;;1999.90;999.90;;;17.10;99.90;;;;;;4807882;29;20586;-69
2023/07/17 06:31:35;;;;;;;1999.90;999.90;;;17.10;99.90;;;;;;4809687;29;20126;-69
2023/07/17 06:34:01;;;;;;;1999.90;999.90;;;17.20;99.90;;;;;;4822838;29;20559;-69
2023/07/17 06:36:26;;;;;;;1999.90;999.90;;;17.20;99.90;;;;;;4807528;29;20055;-69
2023/07/17 06:38:52;;;;;;;1999.90;999.90;;;17.20;99.90;;;;;;4822413;29;20058;-73
2023/07/17 06:41:18;;;;;;;1999.90;999.90;;;17.30;99.90;;;;;;4809186;29;20054;-69
2023/07/17 06:43:43;;;;;;;1999.90;999.90;;;17.30;99.90;;;;;;4808734;29;20086;-69
2023/07/17 06:46:09;;;;;;;1999.90;999.90;;;17.30;99.90;;;;;;4808896;29;20049;-68
2023/07/17 06:48:35;;;;;;;1999.90;999.90;;;17.30;99.90;;;;;;4807561;29;20058;-68
2023/07/17 06:51:04;;;;;;;1999.90;999.90;;;17.30;99.90;;;;;;4808629;29;20135;-69
2023/07/17 06:53:30;;;;;;;1999.90;999.90;;;17.30;99.90;;;;;;4808070;29;20094;-68
2023/07/17 06:55:59;;;;;;;1999.90;999.90;;;17.30;99.90;;;;;;4807469;29;20559;-68
2023/07/17 06:58:25;;;;;;;1999.90;999.90;;;17.40;99.90;;;;;;4807290;29;20510;-69
2023/07/17 07:01:00;;;;;;;1999.90;999.90;;;17.40;99.90;;;;;;4808882;29;20051;-70
2023/07/17 07:03:27;;;;;;;1999.90;999.90;;;17.40;99.90;;;;;;4808931;29;20059;-69
2023/07/17 07:05:58;;;;;;;1999.90;999.90;;;17.40;99.90;;;;;;4808113;29;20057;-69
2023/07/17 07:08:25;;;;;;;1999.90;999.90;;;17.40;99.90;;;;;;4808714;29;20410;-69
2023/07/17 07:10:52;;;;;;;1999.90;999.90;;;17.50;99.90;;;;;;4808871;29;20133;-69
2023/07/17 07:13:20;;;;;;;1999.90;999.90;;;17.50;99.90;;;;;;4807825;29;20362;-69
2023/07/17 07:15:45;;;;;;;1999.90;999.90;;;17.50;99.90;;;;;;4807178;29;20375;-70
2023/07/17 07:18:11;;;;;;;1999.90;999.90;;;17.60;99.90;;;;;;4807127;29;20058;-69
2023/07/17 07:20:37;;;;;;;1999.90;999.90;;;17.60;99.90;;;;;;4808660;29;20054;-68
2023/07/17 07:23:03;;;;;;;1999.90;999.90;;;17.60;99.90;;;;;;4808086;29;20424;-69
2023/07/17 07:25:29;;;;;;;1999.90;999.90;;;17.70;99.90;;;;;;4808006;29;20055;-69
2023/07/17 07:27:55;;;;;;;1999.90;999.90;;;17.70;99.90;;;;;;4806843;29;20055;-68
2023/07/17 07:30:21;;;;;;;1999.90;999.90;;;17.70;99.90;;;;;;4822010;29;20049;-68
2023/07/17 07:32:47;;;;;;;1999.90;999.90;;;17.70;99.90;;;;;;4807484;29;20061;-68
2023/07/17 07:35:13;;;;;;;1999.90;999.90;;;17.70;99.90;;;;;;4808347;29;20067;-68
2023/07/17 07:37:39;;;;;;;1999.90;999.90;;;17.80;99.90;;;;;;4806892;29;20407;-68
2023/07/17 07:40:06;;;;;;;1999.90;999.90;;;17.80;99.90;;;;;;4806797;29;20488;-68
2023/07/17 07:42:32;;;;;;;1999.90;999.90;;;17.90;99.90;;;;;;4807486;29;20543;-68
2023/07/17 07:44:58;;;;;;;1999.90;999.90;;;18.00;99.90;;;;;;4808321;29;20043;-68
2023/07/17 07:47:24;;;;;;;1999.90;999.90;;;18.00;99.90;;;;;;4821895;29;20112;-69
2023/07/17 07:49:50;;;;;;;1999.90;999.90;;;18.10;99.90;;;;;;4807902;29;20046;-69
2023/07/17 07:52:16;;;;;;;1999.90;999.90;;;18.10;99.90;;;;;;4822012;29;20058;-69
2023/07/17 07:54:45;;;;;;;1999.90;999.90;;;18.20;99.90;;;;;;4807694;29;20145;-69
2023/07/17 07:57:11;;;;;;;1999.90;999.90;;;18.20;99.90;;;;;;4807396;29;20046;-69
2023/07/17 07:59:36;;;;;;;1999.90;999.90;;;18.20;99.90;;;;;;4807320;29;20047;-69
2023/07/17 08:02:02;;;;;;;1999.90;999.90;;;18.20;99.90;;;;;;4807190;29;20090;-70
2023/07/17 08:04:29;;;;;;;1999.90;999.90;;;18.20;99.90;;;;;;4807316;29;20050;-69
2023/07/17 08:06:55;;;;;;;1999.90;999.90;;;18.20;99.90;;;;;;4807153;29;20058;-69
2023/07/17 08:09:21;;;;;;;1999.90;999.90;;;18.10;99.90;;;;;;4807330;29;20473;-69
2023/07/17 08:11:47;;;;;;;1999.90;999.90;;;18.00;99.90;;;;;;4807215;29;20051;-73
2023/07/17 08:14:12;;;;;;;1999.90;999.90;;;17.80;99.90;;;;;;4822303;29;20054;-70
2023/07/17 08:16:38;;;;;;;1999.90;999.90;;;17.60;99.90;;;;;;4807169;29;20046;-72
2023/07/17 08:19:04;;;;;;;1999.90;999.90;;;17.50;99.90;;;;;;4807128;29;20043;-69
2023/07/17 08:21:30;;;;;;;1999.90;999.90;;;17.30;99.90;;;;;;4806238;29;20046;-70
2023/07/17 08:23:55;;;;;;;1999.90;999.90;;;17.20;99.90;;;;;;4806459;29;20389;-69
2023/07/17 08:26:21;;;;;;;1999.90;999.90;;;17.00;99.90;;;;;;4807036;29;20055;-70
2023/07/17 08:28:47;;;;;;;1999.90;999.90;;;16.70;99.90;;;;;;4807744;29;20046;-71
2023/07/17 08:31:12;;;;;;;1999.90;999.90;;;16.50;99.90;;;;;;4821133;29;20613;-71
2023/07/17 08:33:38;;;;;;;1999.90;999.90;;;16.20;99.90;;;;;;4806708;29;20051;-70
2023/07/17 08:36:04;;;;;;;1999.90;999.90;;;16.10;99.90;;;;;;4806762;29;20574;-71
2023/07/17 08:38:30;;;;;;;1999.90;999.90;;;15.90;99.90;;;;;;4805783;29;20069;-71
2023/07/17 08:40:56;;;;;;;1999.90;999.90;;;15.80;99.90;;;;;;4806787;29;20108;-71
2023/07/17 08:43:23;;;;;;;1999.90;999.90;;;15.70;99.90;;;;;;4820154;29;20051;-72
2023/07/17 08:45:50;;;;;;;1999.90;999.90;;;15.70;99.90;;;;;;4807500;29;20116;-72
2023/07/17 08:48:16;;;;;;;1999.90;999.90;;;15.70;99.90;;;;;;4806559;29;20054;-71
2023/07/17 08:50:42;;;;;;;1999.90;999.90;;;15.80;99.90;;;;;;4790806;29;20063;-72
2023/07/17 08:53:10;;;;;;;1999.90;999.90;;;15.90;99.90;;;;;;4806410;29;20157;-71
2023/07/17 08:55:37;;;;;;;1999.90;999.90;;;16.00;99.90;;;;;;4805211;29;20574;-72
2023/07/17 08:58:04;;;;;;;1999.90;999.90;;;16.10;99.90;;;;;;4805595;29;20066;-74
2023/07/17 09:00:31;;;;;;;1999.90;999.90;;;16.20;99.90;;;;;;4806255;29;20055;-74
2023/07/17 09:02:57;;;;;;;1999.90;999.90;;;16.30;99.90;;;;;;4805659;29;20123;-71
2023/07/17 09:05:23;;;;;;;1999.90;999.90;;;16.50;99.90;;;;;;4790642;29;20138;-71
2023/07/17 09:07:49;;;;;;;1999.90;999.90;;;16.70;99.90;;;;;;4805889;29;20058;-71
2023/07/17 09:10:17;;;;;;;1999.90;999.90;;;16.70;99.90;;;;;;4805638;29;20055;-74
2023/07/17 09:12:48;;;;;;;1999.90;999.90;;;16.80;99.90;;;;;;4820530;29;20066;-74
2023/07/17 09:15:15;;;;;;;1999.90;999.90;;;16.90;99.90;;;;;;4805489;29;20498;-73
2023/07/17 09:17:42;;;;;;;1999.90;999.90;;;17.00;99.90;;;;;;4805285;29;20504;-73
2023/07/17 09:20:13;;;;;;;1999.90;999.90;;;17.00;99.90;;;;;;4806419;29;20396;-72
2023/07/17 09:22:39;;;;;;;1999.90;999.90;;;17.10;99.90;;;;;;4805468;29;20043;-74
2023/07/17 09:25:09;;;;;;;1999.90;999.90;;;17.20;99.90;;;;;;4806420;29;20058;-73
2023/07/17 09:27:55;;;;;;;1999.90;999.90;;;17.20;99.90;;;;;;4790230;29;20130;-72
2023/07/17 09:30:22;;;;;;;1999.90;999.90;;;17.20;99.90;;;;;;4789550;29;20073;-72
2023/07/17 09:32:49;;;;;;;1999.90;999.90;;;17.20;99.90;;;;;;4806046;29;20504;-72
2023/07/17 09:35:19;;;;;;;1999.90;999.90;;;17.20;99.90;;;;;;4805369;29;20086;-73
2023/07/17 09:37:46;;;;;;;1999.90;999.90;;;17.20;99.90;;;;;;4805339;29;20404;-73
2023/07/17 09:40:13;;;;;;;1999.90;999.90;;;17.30;99.90;;;;;;4806179;29;20397;-73
2023/07/17 09:42:41;;;;;;;1999.90;999.90;;;17.30;99.90;;;;;;4805928;29;20508;-72
2023/07/17 09:45:11;;;;;;;1999.90;999.90;;;17.40;99.90;;;;;;4805271;29;20057;-72
2023/07/17 09:47:37;;;;;;;1999.90;999.90;;;17.40;99.90;;;;;;4806160;29;20046;-73
2023/07/17 09:50:03;;;;;;;1999.90;999.90;;;17.40;99.90;;;;;;4806141;29;20097;-72
2023/07/17 09:52:30;;;;;;;1999.90;999.90;;;17.50;99.90;;;;;;4805933;29;20108;-70
2023/07/17 09:55:00;;;;;;;1999.90;999.90;;;17.60;99.90;;;;;;4807861;29;20050;-72
2023/07/17 09:57:37;;;;;;;1999.90;999.90;;;17.70;99.90;;;;;;4808556;29;20098;-71
2023/07/17 10:00:19;;;;;;;1999.90;999.90;;;17.90;99.90;;;;;;4809911;29;20058;-72
2023/07/17 10:03:10;;;;;;;1999.90;999.90;;;17.90;99.90;;;;;;4808699;29;20054;-74
2023/07/17 10:05:37;;;;;;;1999.90;999.90;;;18.10;99.90;;;;;;4809364;29;20138;-72
2023/07/17 10:08:07;;;;;;;1999.90;999.90;;;18.20;99.90;;;;;;4809212;29;20133;-71
2023/07/17 10:10:34;;;;;;;1999.90;999.90;;;18.40;99.90;;;;;;4808574;29;20058;-69
2023/07/17 10:13:00;;;;;;;1999.90;999.90;;;18.40;99.90;;;;;;4808660;29;20055;-70
2023/07/17 10:15:27;;;;;;;1999.90;999.90;;;18.40;99.90;;;;;;4809236;29;20061;-72
2023/07/17 10:17:57;;;;;;;1999.90;999.90;;;18.40;99.90;;;;;;4808191;29;20472;-71
2023/07/17 10:20:24;;;;;;;1999.90;999.90;;;18.40;99.90;;;;;;4807928;29;20093;-71
2023/07/17 10:22:51;;;;;;;1999.90;999.90;;;18.30;99.90;;;;;;4808255;29;20050;-71
2023/07/17 10:25:19;;;;;;;1999.90;999.90;;;18.30;99.90;;;;;;4808813;29;20059;-71
2023/07/17 10:27:51;;;;;;;1999.90;999.90;;;18.30;99.90;;;;;;4823041;29;20438;-69
2023/07/17 10:30:21;;;;;;;1999.90;999.90;;;18.30;99.90;;;;;;4807884;29;20050;-69
2023/07/17 10:32:49;;;;;;;1999.90;999.90;;;18.40;99.90;;;;;;4807913;29;20145;-72
2023/07/17 10:35:19;;;;;;;1999.90;999.90;;;18.50;99.90;;;;;;4808579;29;20104;-69
2023/07/17 10:37:45;;;;;;;1999.90;999.90;;;18.60;99.90;;;;;;4809431;29;20055;-69
2023/07/17 10:40:31;;;;;;;1999.90;999.90;;;18.70;99.90;;;;;;4823428;29;20458;-69
2023/07/17 10:43:11;;;;;;;1999.90;999.90;;;18.80;99.90;;;;;;4808615;29;20070;-70
2023/07/17 10:45:36;;;;;;;1999.90;999.90;;;18.90;99.90;;;;;;4807781;29;20055;-70
2023/07/17 10:48:03;;;;;;;1999.90;999.90;;;19.00;99.90;;;;;;4808664;29;20070;-70
2023/07/17 10:50:28;;;;;;;1999.90;999.90;;;19.00;99.90;;;;;;4807512;29;20111;-70
2023/07/17 10:53:00;;;;;;;1999.90;999.90;;;19.10;99.90;;;;;;4807203;29;20458;-69
2023/07/17 10:55:27;;;;;;;1999.90;999.90;;;19.20;99.90;;;;;;4808477;29;20515;-69
2023/07/17 10:57:55;;;;;;;1999.90;999.90;;;19.30;99.90;;;;;;4808555;29;20054;-70
2023/07/17 11:00:21;;;;;;;1999.90;999.90;;;19.30;99.90;;;;;;4808457;29;20047;-69
2023/07/17 11:02:46;;;;;;;1999.90;999.90;;;19.40;99.90;;;;;;4808493;29;20560;-70
2023/07/17 11:05:12;;;;;;;1999.90;999.90;;;19.50;99.90;;;;;;4807796;29;20054;-71
2023/07/17 11:07:38;;;;;;;1999.90;999.90;;;19.70;99.90;;;;;;4807652;29;20097;-72
2023/07/17 11:10:11;;;;;;;1999.90;999.90;;;19.70;99.90;;;;;;4807430;29;20051;-71
2023/07/17 11:12:40;;;;;;;1999.90;999.90;;;19.80;99.90;;;;;;4809063;29;20076;-71
2023/07/17 11:15:20;;;;;;;1999.90;999.90;;;19.80;99.90;;;;;;4807560;29;20416;-70
2023/07/17 11:17:46;;;;;;;1999.90;999.90;;;19.80;99.90;;;;;;4808251;29;20050;-73
2023/07/17 11:20:12;;;;;;;1999.90;999.90;;;19.90;99.90;;;;;;4792024;29;20110;-74
2023/07/17 11:22:40;;;;;;;1999.90;999.90;;;19.90;99.90;;;;;;4823065;29;20138;-72
2023/07/17 11:25:08;;;;;;;1999.90;999.90;;;19.90;99.90;;;;;;4807121;29;20423;-72
2023/07/17 11:27:35;;;;;;;1999.90;999.90;;;20.00;99.90;;;;;;4807969;29;20067;-72
2023/07/17 11:30:01;;;;;;;1999.90;999.90;;;20.00;99.90;;;;;;4807123;29;20059;-71
2023/07/17 11:32:31;;;;;;;1999.90;999.90;;;20.10;99.90;;;;;;4807043;29;20115;-71
2023/07/17 11:35:00;;;;;;;1999.90;999.90;;;20.10;99.90;;;;;;4808614;29;20050;-70
2023/07/17 11:37:37;;;;;;;1999.90;999.90;;;20.20;99.90;;;;;;4808157;29;20086;-70
2023/07/17 11:40:07;;;;;;;1999.90;999.90;;;20.20;99.90;;;;;;4806537;29;20050;-71
2023/07/17 11:42:55;;;;;;;1999.90;999.90;;;20.30;99.90;;;;;;4806754;29;20575;-70
2023/07/17 11:45:23;;;;;;;1999.90;999.90;;;20.30;99.90;;;;;;4808165;29;20057;-72
2023/07/17 11:47:50;;;;;;;1999.90;999.90;;;20.50;99.90;;;;;;4807516;29;20426;-70
2023/07/17 11:50:19;;;;;;;1999.90;999.90;;;20.60;99.90;;;;;;4806579;29;20055;-70
2023/07/17 11:52:45;;;;;;;1999.90;999.90;;;20.70;99.90;;;;;;4806644;29;20101;-74
2023/07/17 11:55:11;;;;;;;1999.90;999.90;;;20.70;99.90;;;;;;4808419;29;20089;-75
2023/07/17 11:57:37;;;;;;;1999.90;999.90;;;20.70;99.90;;;;;;4806431;29;20507;-74